createdAt,value
2023-04-10T00:01:39.664Z,100.00
2023-04-10T00:04:08.312Z,100.00
2023-04-10T00:06:36.762Z,100.00
2023-04-10T00:09:05.013Z,100.00
2023-04-10T00:11:34.588Z,100.00
2023-04-10T00:14:02.966Z,100.00
2023-04-10T00:16:31.330Z,100.00
2023-04-10T00:18:59.795Z,100.00
2023-04-10T00:21:28.031Z,100.00
2023-04-10T00:23:56.562Z,100.00
2023-04-10T00:26:26.479Z,100.00
2023-04-10T00:28:56.485Z,100.00
2023-04-10T00:31:24.630Z,100.00
2023-04-10T00:33:53.086Z,100.00
2023-04-10T00:36:21.672Z,100.00
2023-04-10T00:38:50.731Z,100.00
2023-04-10T00:41:18.886Z,100.00
2023-04-10T00:43:47.330Z,100.00
2023-04-10T00:46:17.519Z,100.00
2023-04-10T00:48:46.740Z,100.00
2023-04-10T00:51:14.916Z,100.00
2023-04-10T00:53:43.428Z,100.00
2023-04-10T00:56:12.298Z,100.00
2023-04-10T00:58:41.038Z,100.00
2023-04-10T01:01:09.496Z,100.00
2023-04-10T01:03:40.920Z,100.00
2023-04-10T01:06:18.581Z,100.00
2023-04-10T01:08:55.084Z,100.00
2023-04-10T01:11:32.192Z,100.00
2023-04-10T01:14:08.740Z,100.00
2023-04-10T01:16:43.619Z,100.00
2023-04-10T01:19:30.298Z,100.00
2023-04-10T01:22:00.490Z,100.00
2023-04-10T01:24:50.226Z,100.00
2023-04-10T01:27:35.501Z,100.00
2023-04-10T01:30:07.713Z,100.00
2023-04-10T01:32:38.142Z,100.00
2023-04-10T01:35:08.994Z,100.00
2023-04-10T01:37:42.011Z,100.00
2023-04-10T01:40:15.870Z,100.00
2023-04-10T01:42:51.942Z,100.00
2023-04-10T01:45:26.711Z,100.00
2023-04-10T01:47:55.682Z,100.00
2023-04-10T01:50:24.848Z,100.00
2023-04-10T01:52:54.010Z,100.00
2023-04-10T01:55:23.008Z,100.00
2023-04-10T01:57:52.092Z,100.00
2023-04-10T02:00:21.922Z,100.00
2023-04-10T02:02:51.138Z,100.00
2023-04-10T02:05:20.042Z,100.00
2023-04-10T02:07:56.594Z,100.00
2023-04-10T02:10:38.743Z,100.00
2023-04-10T02:13:08.445Z,100.00
2023-04-10T02:15:38.591Z,100.00
2023-04-10T02:18:08.391Z,100.00
2023-04-10T02:20:37.493Z,100.00
2023-04-10T02:23:06.762Z,100.00
2023-04-10T02:25:35.128Z,100.00
2023-04-10T02:28:06.230Z,100.00
2023-04-10T02:30:34.809Z,100.00
2023-04-10T02:33:04.508Z,100.00
2023-04-10T02:35:32.833Z,100.00
2023-04-10T02:38:01.445Z,100.00
2023-04-10T02:40:29.712Z,100.00
2023-04-10T02:42:58.234Z,100.00
2023-04-10T02:45:26.489Z,100.00
2023-04-10T02:47:54.657Z,100.00
2023-04-10T02:50:24.230Z,100.00
2023-04-10T02:52:52.350Z,100.00
2023-04-10T02:55:20.555Z,100.00
2023-04-10T02:57:48.739Z,100.00
2023-04-10T03:00:19.372Z,100.00
2023-04-10T03:02:47.860Z,100.00
2023-04-10T03:05:16.167Z,100.00
2023-04-10T03:07:45.993Z,100.00
2023-04-10T03:10:14.441Z,100.00
2023-04-10T03:12:42.870Z,100.00
2023-04-10T03:15:12.090Z,100.00
2023-04-10T03:17:40.234Z,100.00
2023-04-10T03:20:10.552Z,100.00
2023-04-10T03:22:38.756Z,100.00
2023-04-10T03:25:09.918Z,100.00
2023-04-10T03:27:37.922Z,100.00
2023-04-10T03:30:07.276Z,100.00
2023-04-10T03:32:35.557Z,100.00
2023-04-10T03:35:03.910Z,100.00
2023-04-10T03:37:31.994Z,100.00
2023-04-10T03:40:00.117Z,100.00
2023-04-10T03:42:29.753Z,100.00
2023-04-10T03:44:57.859Z,100.00
2023-04-10T03:47:26.107Z,100.00
2023-04-10T03:49:54.388Z,100.00
2023-04-10T03:52:22.800Z,100.00
2023-04-10T03:54:52.528Z,100.00
2023-04-10T03:57:21.435Z,100.00
2023-04-10T03:59:51.784Z,100.00
2023-04-10T04:02:20.215Z,100.00
2023-04-10T04:04:49.787Z,100.00
2023-04-10T04:07:18.232Z,100.00
2023-04-10T04:09:46.371Z,100.00
2023-04-10T04:12:14.517Z,100.00
2023-04-10T04:14:43.401Z,100.00
2023-04-10T04:17:15.604Z,100.00
2023-04-10T04:19:43.692Z,100.00
2023-04-10T04:22:12.320Z,100.00
2023-04-10T04:24:40.986Z,100.00
2023-04-10T04:27:09.786Z,100.00
2023-04-10T04:29:37.864Z,100.00
2023-04-10T04:32:06.170Z,100.00
2023-04-10T04:34:36.944Z,100.00
2023-04-10T04:37:05.718Z,100.00
2023-04-10T04:39:33.958Z,100.00
2023-04-10T04:42:05.061Z,100.00
2023-04-10T04:44:33.106Z,100.00
2023-04-10T04:47:01.246Z,100.00
2023-04-10T04:49:29.306Z,100.00
2023-04-10T04:51:59.052Z,100.00
2023-04-10T04:54:27.048Z,100.00
2023-04-10T04:56:55.122Z,100.00
2023-04-10T04:59:23.216Z,100.00
2023-04-10T05:01:51.686Z,100.00
2023-04-10T05:04:20.762Z,100.00
2023-04-10T05:06:49.260Z,100.00
2023-04-10T05:09:18.756Z,100.00
2023-04-10T05:11:46.979Z,100.00
2023-04-10T05:14:15.140Z,100.00
2023-04-10T05:16:44.507Z,100.00
2023-04-10T05:19:12.764Z,100.00
2023-04-10T05:21:42.109Z,100.00
2023-04-10T05:24:10.111Z,100.00
2023-04-10T05:26:41.212Z,100.00
2023-04-10T05:29:09.861Z,100.00
2023-04-10T05:31:38.251Z,100.00
2023-04-10T05:34:06.494Z,100.00
2023-04-10T05:36:34.744Z,100.00
2023-04-10T05:39:02.950Z,100.00
2023-04-10T05:41:31.325Z,100.00
2023-04-10T05:44:01.007Z,100.00
2023-04-10T05:46:29.159Z,100.00
2023-04-10T05:48:57.478Z,100.00
2023-04-10T05:51:26.394Z,100.00
2023-04-10T05:53:54.688Z,100.00
2023-04-10T05:56:22.722Z,100.00
2023-04-10T05:58:51.134Z,100.00
2023-04-10T06:01:20.807Z,100.00
2023-04-10T06:03:49.325Z,100.00
2023-04-10T06:06:18.956Z,100.00
2023-04-10T06:08:47.130Z,100.00
2023-04-10T06:11:15.712Z,100.00
2023-04-10T06:13:43.858Z,100.00
2023-04-10T06:16:12.344Z,100.00
2023-04-10T06:18:42.705Z,100.00
2023-04-10T06:21:11.383Z,100.00
2023-04-10T06:23:39.691Z,100.00
2023-04-10T06:26:08.582Z,100.00
2023-04-10T06:28:37.104Z,100.00
2023-04-10T06:31:07.783Z,100.00
2023-04-10T06:33:36.845Z,100.00
2023-04-10T06:36:07.682Z,100.00
2023-04-10T06:38:37.997Z,100.00
2023-04-10T06:41:07.326Z,100.00
2023-04-10T06:43:36.540Z,100.00
2023-04-10T06:46:05.367Z,100.00
2023-04-10T06:48:33.960Z,100.00
2023-04-10T06:51:02.141Z,100.00
2023-04-10T06:53:33.155Z,100.00
2023-04-10T06:56:03.557Z,100.00
2023-04-10T06:58:32.379Z,100.00
2023-04-10T07:01:04.811Z,100.00
2023-04-10T07:03:34.120Z,100.00
2023-04-10T07:06:03.503Z,100.00
2023-04-10T07:08:33.205Z,100.00
2023-04-10T07:11:01.524Z,100.00
2023-04-10T07:13:29.818Z,100.00
2023-04-10T07:15:57.978Z,100.00
2023-04-10T07:18:26.272Z,100.00
2023-04-10T07:20:54.306Z,100.00
2023-04-10T07:23:22.882Z,100.00
2023-04-10T07:25:53.128Z,100.00
2023-04-10T07:28:23.077Z,100.00
2023-04-10T07:30:51.941Z,100.00
2023-04-10T07:33:20.201Z,100.00
2023-04-10T07:35:51.702Z,100.00
2023-04-10T07:38:20.125Z,100.00
2023-04-10T07:40:48.537Z,100.00
2023-04-10T07:43:18.221Z,100.00
2023-04-10T07:45:46.418Z,100.00
2023-04-10T07:48:14.895Z,100.00
2023-04-10T07:50:43.034Z,100.00
2023-04-10T07:53:11.641Z,100.00
2023-04-10T07:55:40.347Z,100.00
2023-04-10T07:58:09.149Z,100.00
2023-04-10T08:00:39.719Z,100.00
2023-04-10T08:03:08.733Z,100.00
2023-04-10T08:05:37.125Z,100.00
2023-04-10T08:08:07.272Z,100.00
2023-04-10T08:10:37.695Z,100.00
2023-04-10T08:13:06.037Z,100.00
2023-04-10T08:15:34.299Z,100.00
2023-04-10T08:18:04.290Z,100.00
2023-04-10T08:20:37.164Z,100.00
2023-04-10T08:23:19.886Z,100.00
2023-04-10T08:25:49.286Z,100.00
2023-04-10T08:28:17.571Z,100.00
2023-04-10T08:30:45.708Z,99.42
2023-04-10T08:33:15.670Z,100.00
2023-04-10T08:35:43.898Z,97.69
2023-04-10T08:38:14.500Z,97.02
2023-04-10T08:40:44.814Z,97.76
2023-04-10T08:43:13.107Z,97.04
2023-04-10T08:45:42.616Z,95.19
2023-04-10T08:48:12.893Z,93.80
2023-04-10T08:50:46.732Z,91.32
2023-04-10T08:53:16.862Z,92.17
2023-04-10T08:55:47.236Z,90.75
2023-04-10T08:58:15.983Z,90.73
2023-04-10T09:00:44.433Z,90.66
2023-04-10T09:03:14.540Z,95.92
2023-04-10T09:05:44.197Z,96.10
2023-04-10T09:08:12.485Z,95.03
2023-04-10T09:10:40.679Z,93.89
2023-04-10T09:13:09.999Z,89.50
2023-04-10T09:16:00.808Z,86.47
2023-04-10T09:18:43.489Z,85.45
2023-04-10T09:21:15.012Z,83.29
2023-04-10T09:23:44.899Z,81.21
2023-04-10T09:26:30.084Z,84.15
2023-04-10T09:29:00.305Z,80.72
2023-04-10T09:31:30.667Z,81.11
2023-04-10T09:34:14.275Z,77.75
2023-04-10T09:36:45.406Z,77.43
2023-04-10T09:39:14.059Z,74.06
2023-04-10T09:41:50.041Z,73.44
2023-04-10T09:44:21.852Z,70.23
2023-04-10T09:46:50.606Z,68.61
2023-04-10T09:49:19.027Z,66.37
2023-04-10T09:51:49.852Z,68.37
2023-04-10T09:54:18.253Z,71.45
2023-04-10T09:56:47.400Z,70.54
2023-04-10T09:59:15.840Z,71.19
2023-04-10T10:01:46.340Z,70.48
2023-04-10T10:04:17.620Z,68.70
2023-04-10T10:06:46.545Z,70.00
2023-04-10T10:09:17.220Z,68.32
2023-04-10T10:11:45.444Z,66.52
2023-04-10T10:14:20.039Z,65.77
2023-04-10T10:16:51.506Z,64.75
2023-04-10T10:19:25.982Z,65.89
2023-04-10T10:21:55.070Z,65.30
2023-04-10T10:24:26.691Z,65.13
2023-04-10T10:26:57.472Z,63.13
2023-04-10T10:29:26.223Z,62.77
2023-04-10T10:31:55.317Z,61.09
2023-04-10T10:34:26.060Z,59.80
2023-04-10T10:36:54.876Z,61.86
2023-04-10T10:39:42.830Z,63.29
2023-04-10T10:42:20.252Z,60.70
2023-04-10T10:45:05.126Z,58.44
2023-04-10T10:47:35.484Z,57.92
2023-04-10T10:50:04.902Z,57.95
2023-04-10T10:52:44.413Z,58.86
2023-04-10T10:55:38.392Z,59.19
2023-04-10T10:58:08.461Z,57.59
2023-04-10T11:01:19.479Z,55.82
2023-04-10T11:03:47.933Z,56.98
2023-04-10T11:06:19.308Z,57.42
2023-04-10T11:08:49.025Z,57.79
2023-04-10T11:11:21.887Z,57.90
2023-04-10T11:14:18.734Z,58.79
2023-04-10T11:16:48.409Z,57.20
2023-04-10T11:19:22.651Z,54.67
2023-04-10T11:22:15.377Z,54.04
2023-04-10T11:25:10.814Z,53.10
2023-04-10T11:27:41.819Z,52.42
2023-04-10T11:30:33.078Z,51.22
2023-04-10T11:33:04.189Z,49.35
2023-04-10T11:35:33.702Z,50.32
2023-04-10T11:38:18.253Z,49.51
2023-04-10T11:41:01.756Z,49.49
2023-04-10T11:43:32.389Z,50.07
2023-04-10T11:46:02.706Z,48.87
2023-04-10T11:48:31.478Z,47.69
2023-04-10T11:51:01.862Z,49.14
2023-04-10T11:53:30.447Z,46.99
2023-04-10T11:55:59.125Z,47.08
2023-04-10T11:58:28.865Z,46.19
2023-04-10T12:01:03.326Z,46.92
2023-04-10T12:03:37.100Z,48.59
2023-04-10T12:06:07.821Z,49.66
2023-04-10T12:08:36.966Z,49.14
2023-04-10T12:11:09.674Z,48.92
2023-04-10T12:13:38.378Z,48.62
2023-04-10T12:16:11.008Z,47.71
2023-04-10T12:18:40.584Z,49.28
2023-04-10T12:21:09.399Z,49.97
2023-04-10T12:23:39.506Z,49.32
2023-04-10T12:26:18.130Z,49.13
2023-04-10T12:28:53.469Z,48.25
2023-04-10T12:31:30.084Z,49.37
2023-04-10T12:33:59.026Z,49.38
2023-04-10T12:36:29.930Z,47.27
2023-04-10T12:38:59.174Z,47.22
2023-04-10T12:41:28.854Z,47.79
2023-04-10T12:44:09.157Z,45.25
2023-04-10T12:46:39.332Z,44.84
2023-04-10T12:49:13.376Z,44.46
2023-04-10T12:51:49.081Z,45.28
2023-04-10T12:54:38.657Z,44.69
2023-04-10T12:57:07.558Z,44.50
2023-04-10T12:59:37.726Z,45.35
2023-04-10T13:02:07.565Z,44.51
2023-04-10T13:04:36.184Z,42.65
2023-04-10T13:07:05.839Z,43.38
2023-04-10T13:09:34.099Z,42.54
2023-04-10T13:12:04.124Z,42.67
2023-04-10T13:14:32.376Z,42.70
2023-04-10T13:17:00.396Z,42.86
2023-04-10T13:19:30.413Z,43.47
2023-04-10T13:22:01.369Z,42.51
2023-04-10T13:24:29.884Z,43.12
2023-04-10T13:26:59.693Z,42.38
2023-04-10T13:29:29.037Z,43.91
2023-04-10T13:31:57.884Z,43.48
2023-04-10T13:34:26.669Z,43.32
2023-04-10T13:36:56.640Z,42.85
2023-04-10T13:39:24.771Z,42.30
2023-04-10T13:41:53.316Z,41.72
2023-04-10T13:44:21.341Z,41.98
2023-04-10T13:46:49.849Z,42.55
2023-04-10T13:49:19.295Z,42.05
2023-04-10T13:51:49.048Z,41.37
2023-04-10T13:54:19.027Z,40.91
2023-04-10T13:56:48.646Z,41.14
2023-04-10T13:59:16.956Z,40.41
2023-04-10T14:01:45.624Z,42.11
2023-04-10T14:04:15.899Z,41.40
2023-04-10T14:06:44.273Z,39.95
2023-04-10T14:09:12.779Z,40.19
2023-04-10T14:11:42.365Z,40.17
2023-04-10T14:14:10.959Z,40.87
2023-04-10T14:16:41.488Z,40.70
2023-04-10T14:19:10.521Z,40.95
2023-04-10T14:21:40.659Z,39.40
2023-04-10T14:24:09.141Z,39.99
2023-04-10T14:26:37.322Z,39.89
2023-04-10T14:29:09.311Z,40.07
2023-04-10T14:31:47.179Z,39.21
2023-04-10T14:34:23.302Z,39.15
2023-04-10T14:36:55.957Z,38.72
2023-04-10T14:39:25.990Z,38.83
2023-04-10T14:41:54.239Z,38.40
2023-04-10T14:44:23.937Z,38.59
2023-04-10T14:46:52.219Z,38.78
2023-04-10T14:49:20.567Z,38.71
2023-04-10T14:51:49.945Z,38.64
2023-04-10T14:54:21.867Z,38.47
2023-04-10T14:56:50.538Z,39.32
2023-04-10T14:59:18.953Z,37.68
2023-04-10T15:01:49.073Z,37.18
2023-04-10T15:04:17.367Z,37.91
2023-04-10T15:06:45.843Z,38.61
2023-04-10T15:09:14.023Z,38.87
2023-04-10T15:11:42.162Z,39.00
2023-04-10T15:14:12.230Z,39.33
2023-04-10T15:16:40.914Z,39.59
2023-04-10T15:19:10.869Z,40.38
2023-04-10T15:21:38.795Z,40.17
2023-04-10T15:24:07.405Z,39.88
2023-04-10T15:26:37.185Z,39.26
2023-04-10T15:29:05.498Z,39.80
2023-04-10T15:31:33.561Z,40.80
2023-04-10T15:34:01.659Z,40.61
2023-04-10T15:36:32.159Z,40.68
2023-04-10T15:39:02.893Z,41.00
2023-04-10T15:41:32.803Z,40.41
2023-04-10T15:44:00.980Z,40.22
2023-04-10T15:46:32.798Z,40.24
2023-04-10T15:49:01.222Z,40.53
2023-04-10T15:51:31.934Z,40.27
2023-04-10T15:53:59.918Z,40.07
2023-04-10T15:56:28.081Z,40.04
2023-04-10T15:58:56.510Z,39.60
2023-04-10T16:01:24.650Z,39.17
2023-04-10T16:03:53.264Z,38.25
2023-04-10T16:06:26.045Z,37.47
2023-04-10T16:08:55.873Z,37.11
2023-04-10T16:11:24.009Z,37.43
2023-04-10T16:13:52.413Z,37.21
2023-04-10T16:16:21.048Z,37.73
2023-04-10T16:18:49.129Z,38.59
2023-04-10T16:21:17.412Z,39.23
2023-04-10T16:23:45.732Z,39.19
2023-04-10T16:26:16.769Z,40.12
2023-04-10T16:28:46.303Z,40.99
2023-04-10T16:31:14.509Z,40.58
2023-04-10T16:33:43.143Z,41.09
2023-04-10T16:36:11.628Z,40.88
2023-04-10T16:38:39.663Z,41.42
2023-04-10T16:41:08.193Z,41.79
2023-04-10T16:43:38.006Z,41.72
2023-04-10T16:46:07.533Z,42.11
2023-04-10T16:48:36.354Z,42.39
2023-04-10T16:51:06.360Z,42.45
2023-04-10T16:53:36.171Z,42.75
2023-04-10T16:56:05.595Z,43.25
2023-04-10T16:58:36.212Z,43.50
2023-04-10T17:01:17.383Z,44.19
2023-04-10T17:03:45.861Z,44.24
2023-04-10T17:06:14.107Z,44.70
2023-04-10T17:08:42.659Z,44.14
2023-04-10T17:11:13.416Z,44.00
2023-04-10T17:13:41.943Z,44.62
2023-04-10T17:16:10.943Z,42.90
2023-04-10T17:18:41.084Z,42.01
2023-04-10T17:21:12.971Z,41.33
2023-04-10T17:23:41.241Z,40.73
2023-04-10T17:26:14.359Z,40.50
2023-04-10T17:28:44.584Z,40.68
2023-04-10T17:31:12.914Z,39.70
2023-04-10T17:33:44.040Z,39.92
2023-04-10T17:36:13.655Z,39.07
2023-04-10T17:38:42.115Z,39.15
2023-04-10T17:41:12.432Z,39.29
2023-04-10T17:43:40.759Z,39.49
2023-04-10T17:46:09.081Z,39.51
2023-04-10T17:48:39.166Z,39.49
2023-04-10T17:51:09.549Z,39.58
2023-04-10T17:53:37.959Z,39.79
2023-04-10T17:56:06.813Z,40.15
2023-04-10T17:58:35.356Z,40.37
2023-04-10T18:01:03.444Z,40.50
2023-04-10T18:03:31.675Z,40.94
2023-04-10T18:06:00.021Z,41.43
2023-04-10T18:08:29.913Z,41.83
2023-04-10T18:10:58.317Z,41.87
2023-04-10T18:13:26.411Z,42.31
2023-04-10T18:15:54.417Z,42.74
2023-04-10T18:18:22.538Z,42.49
2023-04-10T18:20:50.620Z,42.80
2023-04-10T18:23:21.740Z,42.31
2023-04-10T18:25:55.752Z,42.60
2023-04-10T18:28:24.591Z,42.66
2023-04-10T18:30:56.845Z,42.79
2023-04-10T18:33:26.101Z,42.90
2023-04-10T18:35:56.032Z,43.00
2023-04-10T18:38:24.664Z,43.20
2023-04-10T18:40:57.378Z,43.43
2023-04-10T18:43:27.606Z,43.64
2023-04-10T18:45:56.344Z,43.95
2023-04-10T18:48:24.582Z,44.29
2023-04-10T18:50:53.759Z,44.44
2023-04-10T18:53:22.494Z,44.85
2023-04-10T18:55:52.114Z,45.26
2023-04-10T18:58:22.724Z,45.38
2023-04-10T19:00:51.109Z,45.58
2023-04-10T19:03:20.558Z,45.53
2023-04-10T19:05:48.883Z,45.56
2023-04-10T19:08:18.163Z,46.01
2023-04-10T19:10:46.275Z,46.22
2023-04-10T19:13:14.357Z,46.30
2023-04-10T19:15:46.042Z,46.80
2023-04-10T19:18:16.530Z,47.32
2023-04-10T19:20:49.796Z,47.38
2023-04-10T19:23:20.774Z,47.96
2023-04-10T19:25:53.181Z,48.56
2023-04-10T19:28:23.071Z,48.68
2023-04-10T19:30:53.426Z,49.03
2023-04-10T19:33:21.492Z,49.63
2023-04-10T19:35:49.686Z,50.19
2023-04-10T19:38:18.098Z,50.85
2023-04-10T19:40:47.287Z,51.49
2023-04-10T19:43:15.547Z,52.05
2023-04-10T19:45:44.122Z,53.10
2023-04-10T19:48:16.073Z,53.65
2023-04-10T19:50:44.818Z,54.35
2023-04-10T19:53:15.753Z,55.07
2023-04-10T19:55:45.823Z,55.38
2023-04-10T19:58:30.411Z,55.73
2023-04-10T20:01:06.424Z,56.53
2023-04-10T20:03:36.953Z,56.83
2023-04-10T20:06:07.479Z,56.96
2023-04-10T20:08:36.014Z,57.40
2023-04-10T20:11:06.739Z,58.26
2023-04-10T20:13:35.560Z,58.89
2023-04-10T20:16:04.244Z,59.79
2023-04-10T20:18:34.838Z,60.09
2023-04-10T20:21:04.886Z,60.20
2023-04-10T20:23:33.608Z,61.32
2023-04-10T20:26:01.890Z,64.58
2023-04-10T20:28:30.536Z,72.58
2023-04-10T20:30:58.751Z,76.92
2023-04-10T20:33:27.242Z,81.38
2023-04-10T20:35:56.744Z,81.63
2023-04-10T20:38:26.473Z,84.93
2023-04-10T20:40:55.089Z,87.21
2023-04-10T20:43:23.233Z,87.81
2023-04-10T20:45:51.330Z,88.96
2023-04-10T20:48:19.758Z,91.21
2023-04-10T20:50:49.432Z,91.80
2023-04-10T20:53:17.900Z,92.95
2023-04-10T20:55:47.882Z,99.54
2023-04-10T20:58:16.220Z,100.00
2023-04-10T21:00:44.378Z,100.00
2023-04-10T21:03:13.106Z,100.00
2023-04-10T21:05:42.293Z,100.00
2023-04-10T21:08:10.651Z,100.00
2023-04-10T21:10:44.159Z,100.00
2023-04-10T21:13:15.449Z,100.00
2023-04-10T21:15:43.883Z,100.00
2023-04-10T21:18:13.393Z,100.00
2023-04-10T21:20:43.532Z,100.00
2023-04-10T21:23:12.202Z,100.00
2023-04-10T21:25:40.394Z,100.00
2023-04-10T21:28:08.585Z,100.00
2023-04-10T21:30:38.100Z,100.00
2023-04-10T21:33:06.190Z,100.00
2023-04-10T21:35:34.250Z,100.00
2023-04-10T21:38:02.830Z,100.00
2023-04-10T21:40:34.557Z,100.00
2023-04-10T21:43:03.029Z,100.00
2023-04-10T21:45:31.659Z,100.00
2023-04-10T21:48:02.042Z,100.00
2023-04-10T21:50:30.201Z,100.00
2023-04-10T21:53:00.249Z,100.00
2023-04-10T21:55:28.344Z,100.00
2023-04-10T21:57:56.731Z,100.00
2023-04-10T22:00:24.827Z,100.00
2023-04-10T22:02:53.150Z,100.00
2023-04-10T22:05:24.542Z,100.00
2023-04-10T22:07:53.561Z,100.00
2023-04-10T22:10:22.033Z,100.00
2023-04-10T22:12:50.201Z,100.00
2023-04-10T22:15:18.579Z,100.00
2023-04-10T22:17:46.792Z,100.00
2023-04-10T22:20:14.884Z,100.00
2023-04-10T22:22:44.392Z,100.00
2023-04-10T22:25:12.568Z,100.00
2023-04-10T22:27:40.636Z,100.00
2023-04-10T22:30:10.440Z,100.00
2023-04-10T22:32:38.632Z,100.00
2023-04-10T22:35:08.653Z,100.00
2023-04-10T22:37:36.824Z,100.00
2023-04-10T22:40:07.887Z,100.00
2023-04-10T22:42:36.016Z,100.00
2023-04-10T22:45:04.164Z,100.00
2023-04-10T22:47:32.239Z,100.00
2023-04-10T22:50:00.613Z,100.00
2023-04-10T22:52:28.628Z,100.00
2023-04-10T22:54:59.102Z,100.00
2023-04-10T22:57:28.736Z,100.00
2023-04-10T22:59:59.384Z,100.00
2023-04-10T23:02:28.704Z,100.00
2023-04-10T23:04:57.883Z,100.00
2023-04-10T23:07:27.922Z,100.00
2023-04-10T23:09:56.074Z,100.00
2023-04-10T23:12:24.384Z,100.00
2023-04-10T23:14:54.867Z,100.00
2023-04-10T23:17:23.092Z,100.00
2023-04-10T23:19:51.273Z,100.00
2023-04-10T23:22:19.273Z,100.00
2023-04-10T23:24:48.020Z,100.00
2023-04-10T23:27:16.526Z,100.00
2023-04-10T23:29:44.729Z,100.00
2023-04-10T23:32:14.623Z,100.00
2023-04-10T23:34:42.854Z,100.00
2023-04-10T23:37:11.001Z,100.00
2023-04-10T23:39:39.525Z,100.00
2023-04-10T23:42:07.650Z,100.00
2023-04-10T23:44:35.822Z,100.00
2023-04-10T23:47:04.079Z,100.00
2023-04-10T23:49:35.010Z,100.00
2023-04-10T23:52:03.311Z,100.00
2023-04-10T23:54:31.583Z,100.00
2023-04-10T23:56:59.983Z,100.00
2023-04-10T23:59:28.265Z,100.00
